Time;durP1;ratioP1;P1;durP2;ratioP2;P2;SDS_P1;SDS_P2;PMS_P1;PMS_P2;Temp;Humidity;BMP_temperature;BMP_pressure;BME280_temperature;BME280_humidity;BME280_pressure;Samples;Min_cycle;Max_cycle;Signal;HPM_P1;HPM_P2
2023/07/15 00:01:23;;;;;;;3.58;1.35;;;;;;;22.73;75.40;100265.13;4930152;29;20082;-67
2023/07/15 00:03:50;;;;;;;1.33;0.90;;;;;;;22.71;75.43;100260.09;4907853;29;20164;-64
2023/07/15 00:06:21;;;;;;;0.95;0.73;;;;;;;22.76;74.87;100256.78;4929133;29;20042;-65
2023/07/15 00:08:47;;;;;;;1.73;1.10;;;;;;;22.85;73.31;100248.59;4938796;28;20433;-64
2023/07/15 00:11:37;;;;;;;2.75;1.08;;;;;;;22.94;72.82;100239.63;4955130;28;20043;-64
2023/07/15 00:14:05;;;;;;;2.20;1.00;;;;;;;22.96;71.90;100239.94;4945179;28;20035;-64
2023/07/15 00:16:31;;;;;;;3.00;1.02;;;;;;;23.03;71.22;100237.72;4956954;28;20480;-64
2023/07/15 00:18:58;;;;;;;1.85;0.88;;;;;;;23.09;71.09;100238.66;4949089;28;20094;-67
2023/07/15 00:21:30;;;;;;;1.20;1.00;;;;;;;23.10;69.20;100237.44;4952834;28;20039;-66
2023/07/15 00:23:57;;;;;;;2.90;1.30;;;;;;;23.05;69.76;100238.03;4943877;28;20083;-66
2023/07/15 00:26:24;;;;;;;2.72;1.10;;;;;;;23.10;70.07;100242.19;4955643;28;20027;-65
2023/07/15 00:28:50;;;;;;;8.10;1.08;;;;;;;23.17;68.48;100245.41;4948123;28;20043;-64
2023/07/15 00:31:17;;;;;;;0.88;0.73;;;;;;;23.19;65.49;100223.75;4964773;23;20053;-63
2023/07/15 00:33:44;;;;;;;1.13;0.98;;;;;;;23.24;63.82;100209.44;4972748;28;20050;-62
2023/07/15 00:36:13;;;;;;;1.27;0.70;;;;;;;23.28;63.49;100210.06;4979360;28;20394;-63
2023/07/15 00:38:41;;;;;;;0.88;0.80;;;;;;;23.27;61.38;100200.28;4979920;28;20057;-64
2023/07/15 00:41:21;;;;;;;1.20;0.90;;;;;;;23.24;58.91;100194.91;4979065;28;20034;-64
2023/07/15 00:43:58;;;;;;;1.80;1.00;;;;;;;23.29;60.06;100191.56;4974206;28;20035;-64
2023/07/15 00:46:36;;;;;;;2.53;1.13;;;;;;;23.23;58.89;100182.38;4985523;28;20030;-64
2023/07/15 00:49:11;;;;;;;2.63;1.05;;;;;;;23.25;58.64;100180.72;4968906;28;20050;-64
2023/07/15 00:52:02;;;;;;;1.23;1.00;;;;;;;23.26;58.19;100182.25;4960947;28;20057;-65
2023/07/15 00:54:32;;;;;;;2.17;1.20;;;;;;;23.07;58.18;100177.88;4920569;29;20055;-64
2023/07/15 00:57:00;;;;;;;1.38;1.10;;;;;;;23.11;58.16;100169.53;4925086;29;20556;-64
2023/07/15 00:59:26;;;;;;;3.55;1.17;;;;;;;23.15;57.44;100167.41;4909072;29;20055;-64
2023/07/15 01:02:12;;;;;;;1.85;0.90;;;;;;;23.10;60.25;100171.50;4914394;29;20036;-64
2023/07/15 01:04:38;;;;;;;2.38;0.88;;;;;;;23.12;58.96;100177.31;4860073;29;20098;-63
2023/07/15 01:07:05;;;;;;;1.52;0.90;;;;;;;22.95;57.64;100167.78;4865077;29;20042;-63
2023/07/15 01:09:30;;;;;;;2.40;1.15;;;;;;;22.98;57.07;100164.13;4869104;29;20096;-63
2023/07/15 01:11:56;;;;;;;2.70;1.27;;;;;;;22.81;56.85;100171.06;4872115;29;20093;-64
2023/07/15 01:14:21;;;;;;;2.75;1.02;;;;;;;22.88;57.05;100167.28;4848279;29;20048;-64
2023/07/15 01:16:47;;;;;;;2.17;0.80;;;;;;;22.83;56.73;100156.88;4863137;29;20045;-64
2023/07/15 01:19:18;;;;;;;2.25;1.00;;;;;;;22.95;56.67;100154.03;4867531;29;20494;-64
2023/07/15 01:21:47;;;;;;;4.60;1.00;;;;;;;23.02;55.72;100155.72;4881237;29;20089;-65
2023/07/15 01:24:13;;;;;;;1.92;1.27;;;;;;;23.03;56.65;100162.78;4846121;29;20054;-64
2023/07/15 01:26:38;;;;;;;0.90;0.75;;;;;;;22.98;55.74;100160.59;4866236;29;20406;-64
2023/07/15 01:29:04;;;;;;;1.52;0.93;;;;;;;23.00;55.61;100158.16;4867525;29;20535;-65
2023/07/15 01:31:30;;;;;;;1.02;0.80;;;;;;;23.02;56.04;100151.00;4897459;29;20047;-63
2023/07/15 01:33:55;;;;;;;1.40;0.90;;;;;;;23.12;55.49;100144.34;4915871;29;20048;-64
2023/07/15 01:36:21;;;;;;;1.13;0.75;;;;;;;23.11;55.63;100134.53;4940320;29;20043;-64
2023/07/15 01:38:48;;;;;;;1.42;1.08;;;;;;;23.01;57.29;100133.00;4934741;29;20042;-64
2023/07/15 01:41:13;;;;;;;1.85;1.25;;;;;;;23.01;56.83;100127.50;4949206;28;20061;-64
2023/07/15 01:43:39;;;;;;;1.05;0.90;;;;;;;23.12;56.16;100119.59;4979512;28;20129;-64
2023/07/15 01:46:05;;;;;;;2.17;1.08;;;;;;;23.07;56.35;100131.19;4971944;28;20075;-65
2023/07/15 01:48:30;;;;;;;2.78;0.90;;;;;;;23.13;56.07;100126.63;4983428;28;20125;-63
2023/07/15 01:50:56;;;;;;;2.83;0.80;;;;;;;23.09;56.33;100117.75;4977228;28;20110;-61
2023/07/15 01:53:21;;;;;;;1.58;1.10;;;;;;;23.05;55.57;100122.63;4968193;28;20038;-61
2023/07/15 01:55:47;;;;;;;1.63;1.00;;;;;;;22.97;55.92;100124.13;4986188;28;20022;-61
2023/07/15 01:58:12;;;;;;;1.25;1.10;;;;;;;23.01;55.90;100119.28;4971865;28;20085;-65
2023/07/15 02:00:38;;;;;;;1.17;0.73;;;;;;;22.88;56.25;100104.84;4998971;28;20034;-62
2023/07/15 02:03:03;;;;;;;1.02;0.90;;;;;;;22.92;55.87;100110.19;4969620;28;20041;-63
2023/07/15 02:05:29;;;;;;;0.85;0.60;;;;;;;22.96;55.28;100100.63;4982486;28;20436;-63
2023/07/15 02:07:57;;;;;;;3.22;1.08;;;;;;;22.89;54.85;100106.41;4986173;28;20074;-63
2023/07/15 02:10:23;;;;;;;1.95;0.80;;;;;;;22.92;54.80;100089.00;4980556;28;20026;-65
2023/07/15 02:12:49;;;;;;;1.35;1.05;;;;;;;22.91;54.66;100084.72;4981896;28;20028;-63
2023/07/15 02:15:14;;;;;;;1.83;1.00;;;;;;;22.87;55.25;100075.09;4978228;28;20045;-62
2023/07/15 02:17:40;;;;;;;1.10;0.70;;;;;;;22.80;54.94;100073.38;4986322;28;20100;-63
2023/07/15 02:20:07;;;;;;;0.85;0.80;;;;;;;22.83;54.52;100069.75;4972753;28;20039;-63
2023/07/15 02:22:36;;;;;;;1.00;0.70;;;;;;;22.83;55.53;100075.25;4962639;28;20041;-62
2023/07/15 02:25:01;;;;;;;1.40;0.98;;;;;;;22.72;55.82;100057.66;4977041;28;20427;-63
2023/07/15 02:27:27;;;;;;;0.95;0.73;;;;;;;22.76;56.36;100058.28;4981364;28;20026;-63
2023/07/15 02:29:53;;;;;;;1.05;0.68;;;;;;;22.70;55.65;100054.59;4984082;28;20085;-63
2023/07/15 02:32:42;;;;;;;1.35;0.93;;;;;;;22.67;55.67;100050.75;4999760;28;20038;-63
2023/07/15 02:35:12;;;;;;;0.95;0.80;;;;;;;22.70;55.31;100051.84;4981812;28;20113;-62
2023/07/15 02:37:39;;;;;;;0.85;0.60;;;;;;;22.76;55.65;100052.78;4977956;28;20035;-61
2023/07/15 02:40:05;;;;;;;0.68;0.50;;;;;;;22.60;55.57;100053.00;4979731;28;20027;-63
2023/07/15 02:42:33;;;;;;;1.60;0.90;;;;;;;22.58;55.17;100044.47;4975751;28;20038;-63
2023/07/15 02:45:04;;;;;;;1.35;0.80;;;;;;;22.60;54.73;100048.28;4975574;28;20428;-63
2023/07/15 02:47:31;;;;;;;1.42;0.98;;;;;;;22.66;54.78;100043.75;4974887;28;20121;-62
2023/07/15 02:50:06;;;;;;;0.98;0.90;;;;;;;22.75;54.65;100038.28;4984610;28;20065;-63
2023/07/15 02:52:35;;;;;;;2.15;1.25;;;;;;;22.69;54.35;100036.56;4967439;28;20077;-62
2023/07/15 02:55:03;;;;;;;1.42;0.98;;;;;;;22.63;54.69;100030.91;4980041;28;20035;-64
2023/07/15 02:57:30;;;;;;;1.70;0.98;;;;;;;22.55;54.48;100020.63;4981311;28;20052;-63
2023/07/15 02:59:56;;;;;;;1.67;0.95;;;;;;;22.61;54.63;100018.88;4974934;28;20042;-63
2023/07/15 03:02:23;;;;;;;1.15;0.70;;;;;;;22.56;54.84;100009.19;4999678;28;20030;-63
2023/07/15 03:04:49;;;;;;;2.85;0.90;;;;;;;22.58;55.45;100015.03;4969461;28;20023;-62
2023/07/15 03:07:16;;;;;;;2.08;1.25;;;;;;;22.55;54.52;100015.88;4994163;28;20049;-63
2023/07/15 03:09:41;;;;;;;0.77;0.63;;;;;;;22.61;54.26;100011.38;4978797;28;20045;-63
2023/07/15 03:12:08;;;;;;;1.52;1.00;;;;;;;22.55;54.19;100010.41;4980820;28;20031;-62
2023/07/15 03:14:34;;;;;;;0.60;0.60;;;;;;;22.56;54.89;100011.94;4989094;28;20041;-63
2023/07/15 03:17:00;;;;;;;1.10;0.75;;;;;;;22.60;54.22;100000.84;4975061;28;20039;-63
2023/07/15 03:19:25;;;;;;;1.08;0.88;;;;;;;22.63;54.43;100002.69;4959277;28;20406;-64
2023/07/15 03:21:51;;;;;;;1.52;0.88;;;;;;;22.55;54.29;99998.69;4959731;28;20049;-63
2023/07/15 03:24:18;;;;;;;1.17;1.05;;;;;;;22.59;54.23;99994.59;4996369;28;20039;-63
2023/07/15 03:26:43;;;;;;;1.63;1.08;;;;;;;22.57;54.42;99999.03;4965211;28;20109;-63
2023/07/15 03:29:09;;;;;;;1.80;1.05;;;;;;;22.66;54.05;100002.56;4976932;28;20403;-63
2023/07/15 03:31:39;;;;;;;1.65;0.75;;;;;;;22.59;54.69;100013.06;4971055;28;20037;-63
2023/07/15 03:34:05;;;;;;;1.33;0.60;;;;;;;22.50;54.65;100002.00;4961940;28;20408;-63
2023/07/15 03:36:33;;;;;;;0.88;0.80;;;;;;;22.51;55.27;99996.06;4970501;28;20404;-63
2023/07/15 03:38:59;;;;;;;2.85;0.95;;;;;;;22.51;55.42;100000.78;4979220;28;20077;-63
2023/07/15 03:41:24;;;;;;;1.73;0.70;;;;;;;22.45;55.36;100001.38;4969653;28;20039;-62
2023/07/15 03:43:49;;;;;;;1.90;0.88;;;;;;;22.40;55.76;100006.69;4976759;28;20682;-63
2023/07/15 03:46:15;;;;;;;1.52;0.88;;;;;;;22.39;56.17;99991.44;4996989;28;20060;-64
2023/07/15 03:48:40;;;;;;;2.65;0.77;;;;;;;22.49;56.08;99995.75;4969234;28;20523;-63
2023/07/15 03:51:08;;;;;;;1.23;0.70;;;;;;;22.56;55.49;99994.69;4970870;28;20043;-63
2023/07/15 03:53:34;;;;;;;1.48;0.68;;;;;;;22.45;54.80;99997.88;4959805;28;20042;-63
2023/07/15 03:56:00;;;;;;;1.70;0.80;;;;;;;22.39;55.20;99996.94;4977943;28;20022;-64
2023/07/15 03:58:25;;;;;;;1.90;1.10;;;;;;;22.47;54.65;99987.22;4966346;28;20410;-62
2023/07/15 04:00:51;;;;;;;0.63;0.60;;;;;;;22.36;55.22;99986.84;4980914;28;20101;-64
2023/07/15 04:03:16;;;;;;;0.82;0.65;;;;;;;22.37;55.17;99989.16;4971231;28;20625;-63
2023/07/15 04:05:42;;;;;;;1.20;0.82;;;;;;;22.53;55.16;99990.88;4973966;28;20027;-64
2023/07/15 04:08:07;;;;;;;4.65;1.05;;;;;;;22.64;55.11;99987.75;4977045;28;20038;-64
2023/07/15 04:10:33;;;;;;;2.22;0.98;;;;;;;22.71;54.68;99984.69;4969693;28;20113;-62
2023/07/15 04:12:58;;;;;;;1.88;0.80;;;;;;;22.72;54.13;99986.25;4971534;28;20038;-63
2023/07/15 04:15:23;;;;;;;1.35;0.80;;;;;;;22.56;55.77;99980.97;4980354;28;20271;-64
2023/07/15 04:17:49;;;;;;;1.35;0.98;;;;;;;22.66;55.28;99983.34;4978861;28;20177;-62
2023/07/15 04:20:17;;;;;;;1.50;0.98;;;;;;;22.70;56.32;99983.97;4976288;28;20055;-63
2023/07/15 04:22:43;;;;;;;1.27;0.88;;;;;;;22.71;55.16;99979.97;4971040;28;20038;-63
2023/07/15 04:25:10;;;;;;;1.15;0.90;;;;;;;22.58;55.46;99979.34;4973463;28;20035;-63
2023/07/15 04:27:38;;;;;;;1.13;0.80;;;;;;;22.61;55.40;99986.66;4979624;28;20118;-63
2023/07/15 04:30:04;;;;;;;1.25;0.80;;;;;;;22.73;55.46;99987.75;4962652;28;20039;-65
2023/07/15 04:32:30;;;;;;;1.98;1.10;;;;;;;22.61;55.31;99978.41;4974840;28;20165;-63
2023/07/15 04:34:55;;;;;;;1.45;1.00;;;;;;;22.58;54.37;99976.59;4970445;28;20157;-63
2023/07/15 04:37:20;;;;;;;1.77;1.20;;;;;;;22.73;54.74;99974.03;4982524;28;20050;-62
2023/07/15 04:39:46;;;;;;;2.33;1.10;;;;;;;22.74;55.02;99972.84;4972779;28;20031;-61
2023/07/15 04:42:11;;;;;;;1.17;0.95;;;;;;;22.60;54.77;99971.41;4977170;28;20593;-62
2023/07/15 04:44:37;;;;;;;1.23;0.95;;;;;;;22.63;56.18;99973.25;4965635;28;20502;-63
2023/07/15 04:47:02;;;;;;;1.58;0.93;;;;;;;22.63;56.22;99973.25;4984743;28;20038;-62
2023/07/15 04:49:28;;;;;;;1.92;1.00;;;;;;;22.64;56.43;99974.00;4968702;28;20143;-62
2023/07/15 04:51:54;;;;;;;1.25;0.80;;;;;;;22.76;55.50;99970.41;4980737;28;20059;-63
2023/07/15 04:54:19;;;;;;;1.08;0.80;;;;;;;22.68;56.22;99977.38;4971138;28;20050;-63
2023/07/15 04:56:45;;;;;;;1.52;0.82;;;;;;;22.77;57.06;99969.94;4978217;28;20081;-63
2023/07/15 04:59:11;;;;;;;1.58;0.85;;;;;;;22.83;55.58;99972.84;4970779;28;20088;-63
2023/07/15 05:01:36;;;;;;;2.53;1.25;;;;;;;22.85;56.32;99968.44;4964297;28;20093;-63
2023/07/15 05:04:03;;;;;;;1.30;0.82;;;;;;;22.90;55.15;99970.56;4976300;28;20129;-63
2023/07/15 05:06:28;;;;;;;1.90;0.85;;;;;;;22.97;55.21;99964.78;4983208;28;20041;-63
2023/07/15 05:08:54;;;;;;;0.93;0.70;;;;;;;22.90;55.47;99967.81;4981342;28;20034;-62
2023/07/15 05:11:20;;;;;;;1.92;1.02;;;;;;;22.85;55.51;99956.66;4969405;28;20034;-63
2023/07/15 05:13:46;;;;;;;4.50;1.20;;;;;;;22.65;56.16;99965.31;4968394;28;20514;-62
2023/07/15 05:16:14;;;;;;;2.47;0.98;;;;;;;22.96;55.80;99963.25;4953677;28;20039;-64
2023/07/15 05:18:40;;;;;;;1.45;0.82;;;;;;;23.16;55.66;99960.06;4949856;28;20106;-63
2023/07/15 05:21:05;;;;;;;1.88;1.10;;;;;;;23.28;55.38;99970.94;4984393;28;20038;-63
2023/07/15 05:23:34;;;;;;;1.65;1.13;;;;;;;23.66;55.09;99964.97;4964079;28;20022;-63
2023/07/15 05:26:02;;;;;;;0.80;0.80;;;;;;;23.93;53.79;99973.16;4960605;28;20082;-62
2023/07/15 05:28:30;;;;;;;1.95;0.95;;;;;;;24.25;53.54;99974.50;4961591;28;20044;-64
2023/07/15 05:30:58;;;;;;;1.92;1.25;;;;;;;24.72;52.76;99976.56;4974396;28;20038;-63
2023/07/15 05:33:23;;;;;;;2.00;1.08;;;;;;;25.21;51.16;99970.59;4972214;28;20033;-64
2023/07/15 05:35:49;;;;;;;1.88;0.95;;;;;;;25.62;50.07;99970.44;4970323;28;20396;-62
2023/07/15 05:38:14;;;;;;;1.52;0.98;;;;;;;25.99;50.11;99970.81;4960285;28;20058;-65
2023/07/15 05:40:41;;;;;;;1.33;0.90;;;;;;;26.30;48.57;99976.63;4972389;28;20039;-64
2023/07/15 05:43:07;;;;;;;1.30;1.00;;;;;;;26.24;48.03;99970.25;4956322;28;20158;-65
2023/07/15 05:45:32;;;;;;;1.25;0.80;;;;;;;26.31;48.05;99982.91;4963739;28;20063;-64
2023/07/15 05:47:58;;;;;;;0.82;0.73;;;;;;;26.34;48.92;99968.91;4966428;28;20058;-62
2023/07/15 05:50:23;;;;;;;2.28;1.05;;;;;;;26.41;48.72;99979.56;4980086;28;20499;-64
2023/07/15 05:52:49;;;;;;;1.10;0.90;;;;;;;26.31;47.67;99982.91;4955524;28;20021;-66
2023/07/15 05:55:14;;;;;;;1.85;0.77;;;;;;;26.05;47.96;99974.44;4977255;28;20523;-64
2023/07/15 05:57:39;;;;;;;3.10;0.70;;;;;;;26.02;48.47;99977.38;4960958;28;20043;-63
2023/07/15 06:00:08;;;;;;;2.13;1.00;;;;;;;26.40;48.12;99969.00;4972532;28;20035;-65
2023/07/15 06:02:34;;;;;;;1.13;1.05;;;;;;;26.69;47.80;99983.47;4973491;28;20065;-63
2023/07/15 06:05:00;;;;;;;1.02;0.70;;;;;;;26.73;47.41;99977.81;4965459;28;20050;-64
2023/07/15 06:07:25;;;;;;;0.75;0.75;;;;;;;26.65;47.44;99977.38;4968260;28;20506;-65
2023/07/15 06:09:52;;;;;;;1.08;0.80;;;;;;;26.44;47.83;99975.81;4974794;28;20032;-63
2023/07/15 06:12:17;;;;;;;0.95;0.70;;;;;;;26.41;48.55;99970.50;4968011;28;20480;-65
2023/07/15 06:14:42;;;;;;;1.77;0.90;;;;;;;26.35;48.81;99975.94;4970296;28;20038;-64
2023/07/15 06:17:08;;;;;;;2.10;1.00;;;;;;;26.60;48.89;99980.06;4981613;28;20050;-64
2023/07/15 06:19:33;;;;;;;4.55;0.85;;;;;;;26.45;48.82;99982.88;4979235;28;20034;-65
2023/07/15 06:21:59;;;;;;;4.50;1.40;;;;;;;26.00;48.11;99975.09;4962425;28;20035;-64
2023/07/15 06:24:24;;;;;;;3.47;0.93;;;;;;;25.95;49.01;99984.06;4974669;28;20046;-66
2023/07/15 06:26:49;;;;;;;1.52;0.90;;;;;;;25.99;49.87;99976.34;4953263;28;20039;-65
2023/07/15 06:29:15;;;;;;;1.65;0.88;;;;;;;25.97;48.75;99969.78;4952210;28;20718;-65
2023/07/15 06:34:12;;;;;;;1.25;0.90;;;;;;;26.19;49.57;99968.16;4970802;28;20064;-65
2023/07/15 06:36:37;;;;;;;1.17;0.85;;;;;;;26.50;49.99;99965.63;4986570;28;20445;-65
2023/07/15 06:39:03;;;;;;;1.00;0.90;;;;;;;26.71;49.09;99967.19;4983124;28;20565;-65
2023/07/15 06:41:28;;;;;;;2.75;0.82;;;;;;;26.49;48.49;99974.41;4990847;28;20022;-64
2023/07/15 06:43:54;;;;;;;4.85;1.20;;;;;;;26.61;48.42;99965.03;4966157;28;20189;-66
2023/07/15 06:46:19;;;;;;;4.20;1.10;;;;;;;26.48;48.93;99954.28;4976388;28;20027;-66
2023/07/15 06:48:45;;;;;;;1.95;0.80;;;;;;;26.78;48.62;99958.53;4969460;28;20119;-66
2023/07/15 06:51:14;;;;;;;1.48;0.90;;;;;;;26.55;49.32;99964.19;4971455;28;20041;-65
2023/07/15 06:53:40;;;;;;;1.55;0.85;;;;;;;26.77;49.01;99961.78;4975829;28;20483;-66
2023/07/15 06:56:05;;;;;;;2.00;1.20;;;;;;;26.98;48.56;99959.78;4974261;28;20038;-65
2023/07/15 06:58:31;;;;;;;0.80;0.60;;;;;;;26.97;49.88;99955.47;4974128;28;20069;-65
2023/07/15 07:00:56;;;;;;;2.03;1.00;;;;;;;27.37;50.28;99950.69;4965863;28;20125;-66
2023/07/15 07:03:22;;;;;;;0.85;0.70;;;;;;;27.64;47.24;99949.47;4965752;28;20104;-66
2023/07/15 07:05:47;;;;;;;1.98;1.00;;;;;;;27.78;46.95;99956.88;4968868;28;20484;-65
2023/07/15 07:08:13;;;;;;;1.00;0.88;;;;;;;27.26;47.59;99958.09;4973503;28;20057;-66
2023/07/15 07:10:38;;;;;;;5.53;0.85;;;;;;;27.38;46.85;99954.22;4970784;28;20038;-66
2023/07/15 07:13:04;;;;;;;2.42;0.85;;;;;;;27.30;47.00;99956.63;4982292;28;20054;-65
2023/07/15 07:15:30;;;;;;;2.63;1.20;;;;;;;27.14;49.49;99959.97;4970371;28;20084;-65
2023/07/15 07:17:56;;;;;;;1.52;1.05;;;;;;;27.44;48.30;99958.59;4975936;28;20495;-65
2023/07/15 07:20:21;;;;;;;3.78;1.33;;;;;;;27.05;48.42;99959.34;4971475;28;20082;-66
2023/07/15 07:22:46;;;;;;;1.38;0.85;;;;;;;27.39;48.68;99955.75;4968621;28;20034;-66
2023/07/15 07:25:12;;;;;;;1.40;0.90;;;;;;;27.89;48.64;99964.56;4970015;28;20095;-66
2023/07/15 07:27:37;;;;;;;1.58;0.95;;;;;;;28.24;46.91;99971.41;4973156;28;20097;-66
2023/07/15 07:30:03;;;;;;;0.93;0.82;;;;;;;28.16;46.78;99962.06;4970124;28;20030;-67
2023/07/15 07:32:28;;;;;;;1.48;0.90;;;;;;;28.11;47.48;99970.28;4972371;28;20410;-66
2023/07/15 07:34:54;;;;;;;2.10;0.80;;;;;;;28.13;47.59;99962.25;4973409;28;20510;-65
2023/07/15 07:37:20;;;;;;;2.78;0.80;;;;;;;28.48;47.10;99959.97;4973524;28;20030;-66
2023/07/15 07:39:45;;;;;;;1.33;1.05;;;;;;;28.40;46.67;99942.28;4961731;28;20042;-66
2023/07/15 07:42:12;;;;;;;1.38;1.00;;;;;;;28.47;46.71;99952.94;4962957;28;20034;-66
2023/07/15 07:44:38;;;;;;;1.08;0.75;;;;;;;29.02;47.22;99958.78;4973125;28;20035;-66
2023/07/15 07:47:03;;;;;;;1.58;0.70;;;;;;;29.32;46.71;99961.97;4971096;28;20121;-66
2023/07/15 07:49:29;;;;;;;3.92;0.70;;;;;;;29.66;44.45;99949.66;4968922;28;20034;-66
2023/07/15 07:51:54;;;;;;;0.85;0.80;;;;;;;29.74;43.67;99949.94;4961414;28;20570;-65
2023/07/15 07:54:19;;;;;;;1.77;1.00;;;;;;;29.56;44.53;99945.59;4973332;28;20387;-66
2023/07/15 07:56:45;;;;;;;1.70;1.02;;;;;;;29.67;45.83;99948.41;4973158;28;20492;-66
2023/07/15 07:59:10;;;;;;;0.98;0.65;;;;;;;30.00;44.42;99951.22;4970462;28;20030;-64
2023/07/15 08:01:36;;;;;;;1.75;0.90;;;;;;;29.96;44.53;99944.41;4967806;28;20030;-65
2023/07/15 08:04:01;;;;;;;1.50;1.00;;;;;;;30.26;43.97;99942.59;4967726;28;20034;-64
2023/07/15 08:06:27;;;;;;;1.60;1.10;;;;;;;30.05;44.27;99949.69;4973215;28;20034;-66
2023/07/15 08:08:53;;;;;;;1.50;0.88;;;;;;;29.95;44.47;99943.63;4970248;28;20034;-66
2023/07/15 08:11:18;;;;;;;1.67;0.70;;;;;;;30.03;45.01;99943.88;4968359;28;20058;-65
2023/07/15 08:13:44;;;;;;;2.08;0.98;;;;;;;30.25;43.19;99949.44;4972403;28;20062;-64
2023/07/15 08:16:32;;;;;;;0.90;0.80;;;;;;;30.23;42.96;99951.97;4972649;28;20428;-66
2023/07/15 08:18:58;;;;;;;1.55;0.88;;;;;;;30.43;42.38;99935.00;4966200;28;20092;-67
2023/07/15 08:21:23;;;;;;;0.82;0.70;;;;;;;30.55;43.88;99933.72;4972911;28;20514;-67
2023/07/15 08:23:49;;;;;;;1.70;0.90;;;;;;;30.67;42.93;99938.00;4972211;28;20027;-68
2023/07/15 08:26:14;;;;;;;1.48;0.80;;;;;;;30.79;44.42;99930.38;4965765;28;20478;-68
2023/07/15 08:28:40;;;;;;;1.52;0.85;;;;;;;30.59;42.35;99927.91;4972774;28;20036;-68
2023/07/15 08:31:05;;;;;;;0.65;0.52;;;;;;;30.58;43.00;99937.53;4972851;28;20069;-68
2023/07/15 08:33:31;;;;;;;0.95;0.57;;;;;;;31.07;42.45;99933.81;4967271;28;20031;-68
2023/07/15 08:35:59;;;;;;;0.90;0.77;;;;;;;31.25;42.40;99935.25;4967865;28;20530;-67
2023/07/15 08:38:24;;;;;;;1.40;0.75;;;;;;;31.61;42.14;99934.03;4969529;28;20374;-67
2023/07/15 08:40:51;;;;;;;0.80;0.63;;;;;;;31.35;41.98;99933.66;4969645;28;20093;-67
2023/07/15 08:43:18;;;;;;;0.65;0.60;;;;;;;31.90;40.82;99928.47;4969567;28;20048;-68
2023/07/15 08:45:46;;;;;;;1.25;0.93;;;;;;;32.16;40.57;99944.75;4972352;28;20475;-68
2023/07/15 08:48:12;;;;;;;1.23;0.73;;;;;;;32.08;39.29;99940.25;4972188;28;20035;-68
2023/07/15 08:50:38;;;;;;;0.75;0.63;;;;;;;32.23;39.82;99937.88;4968768;28;20387;-68
2023/07/15 08:53:04;;;;;;;1.73;0.90;;;;;;;32.30;41.24;99940.81;4967790;28;20524;-68
2023/07/15 08:55:30;;;;;;;1.98;0.68;;;;;;;32.60;40.96;99941.53;4968789;28;20074;-68
2023/07/15 08:57:59;;;;;;;1.05;0.80;;;;;;;32.98;39.87;99942.41;4971562;28;20471;-68
2023/07/15 09:00:25;;;;;;;1.02;0.57;;;;;;;32.96;39.40;99944.97;4972319;28;20029;-66
2023/07/15 09:02:51;;;;;;;1.50;0.70;;;;;;;33.12;38.57;99957.94;4971541;28;20035;-69
2023/07/15 09:05:17;;;;;;;1.02;0.77;;;;;;;32.94;38.79;99955.88;4956019;28;20085;-67
2023/07/15 09:07:55;;;;;;;1.02;0.50;;;;;;;33.01;39.19;99954.53;4960423;28;20100;-67
2023/07/15 09:10:20;;;;;;;1.55;1.00;;;;;;;32.34;40.69;99952.47;4966913;28;20070;-68
2023/07/15 09:12:54;;;;;;;1.73;0.70;;;;;;;32.50;40.40;99948.75;4958471;28;20062;-67
2023/07/15 09:15:19;;;;;;;2.55;0.70;;;;;;;33.04;39.86;99948.69;4970690;28;20074;-67
2023/07/15 09:17:52;;;;;;;0.70;0.57;;;;;;;33.42;38.97;99943.81;4970851;28;20081;-68
2023/07/15 09:20:19;;;;;;;1.08;0.73;;;;;;;33.60;38.71;99945.88;4961208;28;20121;-67
2023/07/15 09:22:59;;;;;;;1.45;0.77;;;;;;;33.50;37.78;99937.13;4969992;28;20248;-66
2023/07/15 09:25:26;;;;;;;1.27;0.60;;;;;;;33.70;38.86;99933.75;4972053;28;20074;-67
2023/07/15 09:27:53;;;;;;;0.90;0.65;;;;;;;33.79;39.17;99945.84;4963268;28;20045;-68
2023/07/15 09:30:19;;;;;;;1.25;0.63;;;;;;;33.83;40.55;99941.44;4965320;28;20117;-67
2023/07/15 09:32:45;;;;;;;0.90;0.77;;;;;;;34.21;37.61;99942.09;4963975;28;20094;-67
2023/07/15 09:35:11;;;;;;;0.60;0.50;;;;;;;34.11;37.50;99932.63;4967603;28;20123;-68
2023/07/15 09:37:37;;;;;;;1.90;0.75;;;;;;;34.00;38.49;99927.22;4966891;28;20102;-67
2023/07/15 09:40:08;;;;;;;1.33;0.70;;;;;;;34.22;36.56;99929.63;4970641;28;20496;-67
2023/07/15 09:43:00;;;;;;;1.92;0.65;;;;;;;34.48;36.84;99932.47;4969215;28;20050;-68
2023/07/15 09:45:55;;;;;;;0.88;0.65;;;;;;;34.49;37.22;99920.00;4969832;28;20463;-67
2023/07/15 09:48:21;;;;;;;0.55;0.55;;;;;;;34.67;36.14;99915.56;4942359;29;20178;-68
2023/07/15 09:50:47;;;;;;;0.65;0.50;;;;;;;34.46;36.93;99919.00;4921953;29;20490;-67
2023/07/15 09:53:12;;;;;;;0.60;0.60;;;;;;;34.74;37.05;99934.50;4923394;29;20111;-67
2023/07/15 09:55:38;;;;;;;0.98;0.40;;;;;;;34.61;35.79;99928.91;4927651;29;20040;-67
2023/07/15 09:58:22;;;;;;;1.05;0.68;;;;;;;35.01;35.61;99925.56;4935904;29;20043;-67
2023/07/15 10:00:55;;;;;;;0.52;0.50;;;;;;;35.34;37.38;99933.25;4932369;29;20069;-68
2023/07/15 10:03:30;;;;;;;0.70;0.50;;;;;;;35.23;35.99;99927.88;4941228;29;20079;-68
2023/07/15 10:05:56;;;;;;;0.50;0.50;;;;;;;35.13;35.73;99932.44;4906494;29;20052;-67
2023/07/15 10:08:23;;;;;;;1.05;0.57;;;;;;;35.30;36.59;99923.66;4912181;29;20034;-67
2023/07/15 10:10:48;;;;;;;0.43;0.43;;;;;;;35.42;36.08;99931.25;4932440;29;20040;-66
2023/07/15 10:13:14;;;;;;;0.70;0.47;;;;;;;35.70;35.09;99925.00;4925804;29;20110;-63
2023/07/15 10:15:41;;;;;;;0.90;0.50;;;;;;;35.72;35.37;99928.03;4926502;29;20099;-67
2023/07/15 10:18:16;;;;;;;0.60;0.45;;;;;;;36.07;36.53;99927.44;4933865;29;20042;-67
2023/07/15 10:21:08;;;;;;;0.75;0.57;;;;;;;35.66;36.78;99916.19;4934337;29;20049;-67
2023/07/15 10:23:34;;;;;;;0.60;0.60;;;;;;;35.75;35.09;99931.78;4863823;29;20044;-68
2023/07/15 10:26:04;;;;;;;0.77;0.50;;;;;;;35.43;35.21;99920.78;4919224;29;20412;-67
2023/07/15 10:28:33;;;;;;;0.47;0.47;;;;;;;35.99;36.96;99918.19;4928773;29;21200;-67
2023/07/15 10:31:09;;;;;;;1.05;0.50;;;;;;;36.47;35.89;99922.28;4934133;29;20032;-67
2023/07/15 10:33:38;;;;;;;1.10;0.40;;;;;;;36.54;35.25;99920.84;4932788;29;20117;-67
2023/07/15 10:36:05;;;;;;;2.47;0.40;;;;;;;36.91;33.42;99929.50;4927786;29;20040;-67
2023/07/15 10:38:32;;;;;;;0.40;0.40;;;;;;;36.87;33.88;99929.09;4930155;29;20039;-68
2023/07/15 10:41:03;;;;;;;0.60;0.50;;;;;;;36.61;33.26;99928.53;4934243;29;20057;-68
2023/07/15 10:43:34;;;;;;;0.68;0.50;;;;;;;36.97;33.65;99932.88;4932210;29;20039;-67
2023/07/15 10:46:05;;;;;;;1.58;0.57;;;;;;;36.85;34.03;99933.75;4923311;29;20036;-68
2023/07/15 10:48:34;;;;;;;0.98;0.70;;;;;;;36.96;33.30;99934.19;4922701;29;20047;-66
2023/07/15 10:51:03;;;;;;;0.38;0.38;;;;;;;36.79;33.88;99933.91;4934236;29;20348;-67
2023/07/15 10:53:32;;;;;;;0.73;0.63;;;;;;;37.13;34.72;99941.38;4927645;29;20139;-66
2023/07/15 10:56:03;;;;;;;0.68;0.50;;;;;;;37.14;33.39;99946.44;4933770;29;20516;-68
2023/07/15 10:58:34;;;;;;;0.57;0.55;;;;;;;36.68;33.50;99941.91;4927896;29;20497;-67
2023/07/15 11:01:05;;;;;;;0.73;0.40;;;;;;;36.73;33.93;99940.97;4955233;28;20065;-66
2023/07/15 11:03:35;;;;;;;0.65;0.40;;;;;;;36.46;33.75;99946.06;4965783;28;20026;-66
2023/07/15 11:06:04;;;;;;;2.45;0.50;;;;;;;36.13;33.64;99933.66;4985760;28;20050;-68
2023/07/15 11:08:30;;;;;;;0.40;0.32;;;;;;;35.63;35.32;99938.97;4973846;28;20042;-67
2023/07/15 11:11:01;;;;;;;0.82;0.50;;;;;;;35.67;35.36;99936.56;4963521;28;20038;-69
2023/07/15 11:13:26;;;;;;;0.68;0.40;;;;;;;35.83;34.70;99944.56;4963277;28;20039;-68
2023/07/15 11:15:52;;;;;;;1.65;0.40;;;;;;;36.00;35.23;99953.38;4974150;28;20046;-68
2023/07/15 11:18:20;;;;;;;3.50;0.57;;;;;;;36.24;34.56;99938.19;4970886;28;20032;-68
2023/07/15 11:20:47;;;;;;;0.82;0.50;;;;;;;36.25;34.15;99948.91;4965173;28;20035;-68
2023/07/15 11:23:13;;;;;;;3.42;0.45;;;;;;;36.58;34.15;99961.31;4967561;28;20050;-68
2023/07/15 11:25:39;;;;;;;0.60;0.50;;;;;;;36.55;34.55;99953.25;4963183;28;20027;-67
2023/07/15 11:28:08;;;;;;;0.75;0.50;;;;;;;36.59;35.66;99971.22;4967258;28;20102;-66
2023/07/15 11:30:38;;;;;;;0.60;0.45;;;;;;;36.73;34.47;99960.63;4972006;28;20105;-67
2023/07/15 11:33:05;;;;;;;2.40;0.45;;;;;;;36.66;33.70;99950.88;4972722;28;20034;-67
2023/07/15 11:35:34;;;;;;;0.50;0.50;;;;;;;36.78;34.53;99959.75;4967095;28;20061;-66